Alpine Persefone — A8MS7 — position and weather

sailwx.info

Track history (hours):
 
Tides and Currents Weather Stations Pressure Air Temp Water Temp Dewpoint Dewpoint Depression Visibility Wind Speed Wind Dir Waves Ship Positions

Alpine Persefone

Last reported at 2014-Nov-18 03:19 UTC. Time now 2014-Nov-26 16:12 UTC.
Position N 36°00' W 005°28'.
Warning: this ship's position is 8 days out of date.

Length 226 m; draft 13 m.

Type: Tanker. MMSI: 636013411.

Date/timePositionNaut miles runAvg speedWind from/ knotsBaromVisibWave heightAir tempDewpointWater temp
2014-Nov-18 03:19N 36°00' W 005°28'7 8.7
2014-Nov-18 02:33N 36°05' W 005°23'2 0.4
2014-Nov-17 21:07N 36°07' W 005°22'0 0.0
2014-Nov-17 17:31N 36°07' W 005°22'1 0.3
2014-Nov-17 14:12N 36°06' W 005°22'2 3.6
2014-Nov-17 13:33N 36°04' W 005°23'1 0.7
2014-Nov-17 12:27N 36°05' W 005°23'1 0.8
2014-Nov-17 11:31N 36°04' W 005°22'2 2.1
2014-Nov-17 10:33N 36°04' W 005°20'  
2014-Nov-15 02:09N 37°47' E 007°57'1112.6
2014-Nov-15 01:18N 37°48' E 008°10'912.6
2014-Nov-15 00:33N 37°50' E 008°22'1212.2
2014-Nov-14 23:33N 37°52' E 008°37'2311.6
2014-Nov-14 21:33N 37°54' E 009°06'  
Track history (hours):
 
Tides and Currents Weather Stations Pressure Air Temp Water Temp Dewpoint Dewpoint Depression Visibility Wind Speed Wind Dir Waves Ship Positions

Alpine Persefone

Last reported at 2014-Nov-18 03:19 UTC. Time now 2014-Nov-26 16:12 UTC.
Position N 36°00' W 005°28'.
Warning: this ship's position is 8 days out of date.

Length 226 m; draft 13 m.

Type: Tanker. MMSI: 636013411.

Date/timePositionNaut miles runAvg speedWind from/ knotsBaromVisibWave heightAir tempDewpointWater temp
2014-Nov-18 03:19N 36°00' W 005°28'7 8.7
2014-Nov-18 02:33N 36°05' W 005°23'2 0.4
2014-Nov-17 21:07N 36°07' W 005°22'0 0.0
2014-Nov-17 17:31N 36°07' W 005°22'1 0.3
2014-Nov-17 14:12N 36°06' W 005°22'2 3.6
2014-Nov-17 13:33N 36°04' W 005°23'1 0.7
2014-Nov-17 12:27N 36°05' W 005°23'1 0.8
2014-Nov-17 11:31N 36°04' W 005°22'2 2.1
2014-Nov-17 10:33N 36°04' W 005°20'  
2014-Nov-15 02:09N 37°47' E 007°57'1112.6
2014-Nov-15 01:18N 37°48' E 008°10'912.6
2014-Nov-15 00:33N 37°50' E 008°22'1212.2
2014-Nov-14 23:33N 37°52' E 008°37'2311.6
2014-Nov-14 21:33N 37°54' E 009°06'  

Dump ship's entire track history